This is the latest recevied weather packets stored in our database for station/object K0RGI. If no packets are shown the sender has not sent any weather packets the latest 10 day(s).
| Time | Temp. | Humidity | Pressure | Rain* | Wind** | Luminosity | Snow |
|---|---|---|---|---|---|---|---|
| 1777785666 | 9.44° C | 75% | 1019.9 hPa | 0 mm | - | 0 W/m² | - |
| 1777785065 | 10° C | 73% | 1020 hPa | 0 mm | - | 0 W/m² | - |
| 1777784464 | 10° C | 73% | 1019.8 hPa | 0 mm | - | 0 W/m² | - |
| 1777783865 | 10.56° C | 70% | 1020 hPa | 0 mm | - | 0 W/m² | - |
| 1777783259 | 10° C | 71% | 1020.1 hPa | 0 mm | - | 0 W/m² | - |
| 1777782658 | 10° C | 71% | 1019.8 hPa | 0 mm | - | 0 W/m² | - |
| 1777782056 | 10° C | 71% | 1020 hPa | 0 mm | - | 0 W/m² | - |
| 1777781451 | 10.56° C | 68% | 1019.7 hPa | 0 mm | - | 0 W/m² | - |
| 1777780851 | 11.11° C | 69% | 1019.6 hPa | 0 mm | - | 0 W/m² | - |
| 1777780246 | 11.11° C | 67% | 1019.8 hPa | 0 mm | - | 0 W/m² | - |
| 1777779646 | 11.67° C | 66% | 1019.6 hPa | 0 mm | - | 0 W/m² | - |
| 1777779041 | 11.67° C | 64% | 1019.7 hPa | 0 mm | - | 0 W/m² | - |
| 1777778436 | 11.67° C | 63% | 1019.9 hPa | 0 mm | - | 0 W/m² | - |
| 1777777831 | 12.22° C | 62% | 1019.9 hPa | 0 mm | - | 0 W/m² | - |
| 1777777230 | 12.22° C | 62% | 1019.8 hPa | 0 mm | - | 0 W/m² | - |
| 1777776625 | 12.78° C | 62% | 1019.6 hPa | 0 mm | - | 0 W/m² | - |
| 1777776024 | 12.78° C | 63% | 1019.3 hPa | 0 mm | - | 0 W/m² | - |
| 1777775425 | 12.78° C | 62% | 1019.1 hPa | 0 mm | - | 0 W/m² | - |
| 1777774821 | 12.78° C | 61% | 1018.9 hPa | 0 mm | - | 0 W/m² | - |
| 1777774221 | 12.78° C | 61% | 1019.2 hPa | 0 mm | - | 0 W/m² | - |
| 1777773620 | 12.78° C | 60% | 1018.8 hPa | 0 mm | - | 0 W/m² | - |
| 1777773020 | 12.78° C | 59% | 1018.7 hPa | 0 mm | - | 0 W/m² | - |
| 1777772420 | 12.78° C | 60% | 1018.7 hPa | 0 mm | - | 0 W/m² | - |
| 1777771815 | 12.22° C | 62% | 1018.3 hPa | 0 mm | - | 0 W/m² | - |
| 1777771214 | 11.67° C | 63% | 1018.1 hPa | 0 mm | - | 0 W/m² | - |
* Rain latest hour (hover to see other rain measurements)
** Current wind speed in m/s (hover to see current wind gust speed)